createdAt,value
2022-08-23T00:01:44.458Z,99.90
2022-08-23T00:04:19.659Z,99.90
2022-08-23T00:06:47.174Z,99.90
2022-08-23T00:09:14.052Z,99.90
2022-08-23T00:11:51.824Z,97.80
2022-08-23T00:14:18.532Z,99.90
2022-08-23T00:16:45.670Z,99.90
2022-08-23T00:19:13.262Z,82.20
2022-08-23T00:21:40.655Z,90.00
2022-08-23T00:24:07.814Z,99.90
2022-08-23T00:26:53.435Z,98.80
2022-08-23T00:29:21.246Z,99.90
2022-08-23T00:31:48.658Z,96.80
2022-08-23T00:34:15.529Z,99.90
2022-08-23T00:36:42.265Z,99.90
2022-08-23T00:39:08.920Z,57.90
2022-08-23T00:41:35.585Z,99.90
2022-08-23T00:44:21.313Z,99.90
2022-08-23T00:47:08.153Z,99.90
2022-08-23T00:49:35.909Z,96.40
2022-08-23T00:52:07.592Z,55.50
2022-08-23T00:54:36.441Z,99.90
2022-08-23T00:57:05.652Z,99.90
2022-08-23T00:59:32.553Z,92.90
2022-08-23T01:02:00.494Z,90.80
2022-08-23T01:04:30.510Z,96.30
2022-08-23T01:07:17.451Z,96.70
2022-08-23T01:09:44.813Z,98.10
2022-08-23T01:12:15.953Z,99.90
2022-08-23T01:14:45.171Z,99.90
2022-08-23T01:17:15.041Z,99.90
2022-08-23T01:19:46.404Z,99.90
2022-08-23T01:22:17.167Z,99.90
2022-08-23T01:25:07.007Z,99.90
2022-08-23T01:27:32.120Z,99.90
2022-08-23T01:29:59.922Z,99.90
2022-08-23T01:32:26.729Z,95.30
2022-08-23T01:34:53.401Z,97.10
2022-08-23T01:37:21.064Z,99.90
2022-08-23T01:39:47.882Z,99.90
2022-08-23T01:42:14.583Z,99.90
2022-08-23T01:44:41.256Z,99.90
2022-08-23T01:47:07.989Z,99.90
2022-08-23T01:49:35.177Z,99.90
2022-08-23T01:52:01.947Z,99.90
2022-08-23T01:54:29.351Z,99.90
2022-08-23T01:56:56.620Z,99.90
2022-08-23T01:59:24.224Z,92.80
2022-08-23T02:01:51.401Z,99.90
2022-08-23T02:04:18.261Z,98.10
2022-08-23T02:06:45.454Z,97.30
2022-08-23T02:09:17.355Z,96.90
2022-08-23T02:11:44.821Z,99.90
2022-08-23T02:14:16.122Z,99.90
2022-08-23T02:17:03.887Z,99.90
2022-08-23T02:19:35.120Z,99.90
2022-08-23T02:22:02.360Z,99.90
2022-08-23T02:24:31.533Z,99.90
2022-08-23T02:27:00.307Z,99.90
2022-08-23T02:29:32.552Z,99.90
2022-08-23T02:32:00.151Z,99.90
2022-08-23T02:34:36.485Z,99.90
2022-08-23T02:37:03.422Z,99.90
2022-08-23T02:39:30.427Z,99.90
2022-08-23T02:41:57.565Z,99.90
2022-08-23T02:44:24.608Z,99.90
2022-08-23T02:46:51.526Z,99.90
2022-08-23T02:49:18.604Z,99.90
2022-08-23T02:51:45.473Z,99.90
2022-08-23T02:54:12.290Z,99.90
2022-08-23T02:56:39.308Z,99.90
2022-08-23T02:59:06.853Z,99.90
2022-08-23T03:01:38.298Z,99.90
2022-08-23T03:04:06.893Z,99.90
2022-08-23T03:06:34.273Z,99.90
2022-08-23T03:09:01.093Z,99.90
2022-08-23T03:11:27.962Z,99.90
2022-08-23T03:13:56.460Z,99.90
2022-08-23T03:16:23.839Z,99.90
2022-08-23T03:18:51.355Z,99.90
2022-08-23T03:21:19.215Z,99.90
2022-08-23T03:23:46.375Z,99.90
2022-08-23T03:26:13.967Z,99.90
2022-08-23T03:28:41.510Z,99.90
2022-08-23T03:31:09.090Z,99.90
2022-08-23T03:33:36.119Z,99.90
2022-08-23T03:36:04.020Z,99.90
2022-08-23T03:38:33.877Z,99.90
2022-08-23T03:41:01.266Z,99.90
2022-08-23T03:43:28.532Z,99.90
2022-08-23T03:45:55.231Z,99.90
2022-08-23T03:48:22.490Z,99.90
2022-08-23T03:50:49.265Z,99.90
2022-08-23T03:53:16.261Z,99.90
2022-08-23T03:55:43.763Z,99.90
2022-08-23T03:58:11.338Z,99.90
2022-08-23T04:00:38.602Z,99.90
2022-08-23T04:03:05.341Z,99.90
2022-08-23T04:05:31.990Z,99.90
2022-08-23T04:07:59.418Z,99.90
2022-08-23T04:10:26.479Z,99.90
2022-08-23T04:12:54.933Z,99.90
2022-08-23T04:15:22.407Z,99.90
2022-08-23T04:17:49.158Z,99.90
2022-08-23T04:20:16.123Z,99.90
2022-08-23T04:22:42.793Z,99.90
2022-08-23T04:25:33.415Z,99.90
2022-08-23T04:27:59.879Z,99.90
2022-08-23T04:30:27.161Z,99.90
2022-08-23T04:32:53.823Z,99.90
2022-08-23T04:35:22.706Z,99.90
2022-08-23T04:37:49.449Z,99.90
2022-08-23T04:40:35.089Z,99.90
2022-08-23T04:43:02.245Z,99.90
2022-08-23T04:45:28.963Z,99.90
2022-08-23T04:47:55.828Z,99.90
2022-08-23T04:50:22.662Z,99.90
2022-08-23T04:52:49.595Z,99.90
2022-08-23T04:55:16.757Z,99.90
2022-08-23T04:57:43.442Z,99.90
2022-08-23T05:00:14.431Z,99.90
2022-08-23T05:02:41.143Z,99.90
2022-08-23T05:05:10.888Z,99.90
2022-08-23T05:07:42.086Z,99.90
2022-08-23T05:10:11.662Z,99.90
2022-08-23T05:12:38.775Z,99.90
2022-08-23T05:15:05.763Z,99.90
2022-08-23T05:17:32.467Z,99.90
2022-08-23T05:19:59.176Z,99.90
2022-08-23T05:22:25.976Z,99.90
2022-08-23T05:24:52.707Z,99.90
2022-08-23T05:27:19.492Z,99.90
2022-08-23T05:29:47.322Z,99.90
2022-08-23T05:32:13.996Z,99.90
2022-08-23T05:34:40.755Z,99.90
2022-08-23T05:37:07.595Z,99.90
2022-08-23T05:39:36.499Z,99.90
2022-08-23T05:42:04.662Z,99.90
2022-08-23T05:44:34.553Z,99.90
2022-08-23T05:47:03.767Z,99.90
2022-08-23T05:49:37.219Z,99.90
2022-08-23T05:52:04.858Z,99.90
2022-08-23T05:54:31.867Z,99.90
2022-08-23T05:56:58.580Z,99.90
2022-08-23T05:59:25.317Z,99.90
2022-08-23T06:01:52.068Z,99.90
2022-08-23T06:04:18.911Z,99.90
2022-08-23T06:06:45.613Z,99.90
2022-08-23T06:09:14.268Z,99.90
2022-08-23T06:11:41.104Z,99.90
2022-08-23T06:14:09.319Z,99.90
2022-08-23T06:16:38.063Z,99.90
2022-08-23T06:19:05.661Z,99.90
2022-08-23T06:21:32.911Z,99.90
2022-08-23T06:23:59.647Z,99.90
2022-08-23T06:26:31.342Z,99.90
2022-08-23T06:28:59.789Z,99.90
2022-08-23T06:31:45.564Z,99.90
2022-08-23T06:34:32.371Z,99.90
2022-08-23T06:37:01.008Z,99.90
2022-08-23T06:39:28.716Z,99.90
2022-08-23T06:42:00.859Z,99.90
2022-08-23T06:44:28.314Z,99.90
2022-08-23T06:46:56.831Z,99.90
2022-08-23T06:49:24.233Z,99.90
2022-08-23T06:51:52.455Z,99.90
2022-08-23T06:54:21.886Z,99.90
2022-08-23T06:56:49.410Z,99.90
2022-08-23T06:59:16.620Z,99.90
2022-08-23T07:01:47.012Z,99.90
2022-08-23T07:04:15.940Z,99.90
2022-08-23T07:06:42.822Z,99.90
2022-08-23T07:09:09.522Z,99.90
2022-08-23T07:11:36.282Z,99.90
2022-08-23T07:14:04.977Z,99.90
2022-08-23T07:16:32.899Z,99.90
2022-08-23T07:18:59.707Z,99.90
2022-08-23T07:21:26.570Z,99.90
2022-08-23T07:23:54.069Z,99.90
2022-08-23T07:26:21.596Z,99.90
2022-08-23T07:28:48.255Z,99.90
2022-08-23T07:31:17.850Z,99.90
2022-08-23T07:33:45.240Z,99.90
2022-08-23T07:36:16.555Z,99.90
2022-08-23T07:38:45.441Z,99.90
2022-08-23T07:41:12.757Z,99.90
2022-08-23T07:43:39.868Z,99.90
2022-08-23T07:46:07.234Z,99.90
2022-08-23T07:48:52.944Z,99.90
2022-08-23T07:51:20.951Z,99.90
2022-08-23T07:53:48.014Z,99.90
2022-08-23T07:56:15.810Z,99.90
2022-08-23T07:58:42.544Z,99.90
2022-08-23T08:01:15.845Z,99.90
2022-08-23T08:03:43.921Z,99.90
2022-08-23T08:06:12.821Z,99.90
2022-08-23T08:08:41.215Z,99.90
2022-08-23T08:11:08.535Z,99.90
2022-08-23T08:13:38.163Z,99.90
2022-08-23T08:16:04.991Z,99.90
2022-08-23T08:18:32.025Z,99.90
2022-08-23T08:20:58.976Z,99.90
2022-08-23T08:23:25.699Z,99.90
2022-08-23T08:26:02.473Z,99.90
2022-08-23T08:28:29.203Z,99.90
2022-08-23T08:30:56.028Z,99.90
2022-08-23T08:33:22.739Z,99.90
2022-08-23T08:35:57.748Z,99.90
2022-08-23T08:38:28.832Z,99.90
2022-08-23T08:41:17.724Z,99.90
2022-08-23T08:43:58.011Z,99.90
2022-08-23T08:46:28.400Z,99.90
2022-08-23T08:48:57.338Z,99.90
2022-08-23T08:51:23.981Z,99.90
2022-08-23T08:53:51.631Z,99.90
2022-08-23T08:56:21.267Z,99.90
2022-08-23T08:58:47.910Z,99.90
2022-08-23T09:01:18.716Z,99.90
2022-08-23T09:03:46.329Z,99.90
2022-08-23T09:06:33.435Z,99.90
2022-08-23T09:09:00.451Z,99.90
2022-08-23T09:11:33.878Z,99.90
2022-08-23T09:14:00.559Z,99.90
2022-08-23T09:16:30.352Z,99.90
2022-08-23T09:18:57.134Z,99.90
2022-08-23T09:21:24.073Z,99.90
2022-08-23T09:24:00.146Z,99.90
2022-08-23T09:26:32.478Z,99.90
2022-08-23T09:29:16.584Z,99.90
2022-08-23T09:31:54.172Z,99.90
2022-08-23T09:34:20.948Z,99.90
2022-08-23T09:36:48.439Z,99.90
2022-08-23T09:39:24.466Z,99.90
2022-08-23T09:41:58.077Z,99.90
2022-08-23T09:44:32.444Z,99.90
2022-08-23T09:47:04.971Z,99.90
2022-08-23T09:49:31.885Z,99.90
2022-08-23T09:51:59.688Z,99.90
2022-08-23T09:54:33.938Z,99.90
2022-08-23T09:57:04.992Z,99.90
2022-08-23T09:59:45.707Z,99.90
2022-08-23T10:02:21.624Z,99.90
2022-08-23T10:04:54.097Z,99.90
2022-08-23T10:07:33.627Z,99.90
2022-08-23T10:10:32.534Z,99.90
2022-08-23T10:12:59.425Z,99.90
2022-08-23T10:15:36.201Z,99.90
2022-08-23T10:18:08.040Z,99.90
2022-08-23T10:20:44.072Z,99.90
2022-08-23T10:23:29.845Z,99.90
2022-08-23T10:25:59.746Z,99.90
2022-08-23T10:29:08.595Z,99.90
2022-08-23T10:31:59.389Z,99.90
2022-08-23T10:34:48.457Z,99.90
2022-08-23T10:37:32.531Z,99.90
2022-08-23T10:40:03.153Z,99.90
2022-08-23T10:42:38.043Z,99.90
2022-08-23T10:45:04.822Z,99.90
2022-08-23T10:47:41.735Z,99.90
2022-08-23T10:50:12.464Z,99.90
2022-08-23T10:52:48.941Z,99.90
2022-08-23T10:55:34.799Z,99.90
2022-08-23T10:58:07.060Z,99.90
2022-08-23T11:00:34.431Z,99.90
2022-08-23T11:03:07.328Z,99.90
2022-08-23T11:05:35.899Z,99.90
2022-08-23T11:08:04.997Z,99.90
2022-08-23T11:10:37.583Z,99.90
2022-08-23T11:13:20.793Z,99.90
2022-08-23T11:16:07.047Z,99.90
2022-08-23T11:18:33.955Z,99.90
2022-08-23T11:21:18.832Z,99.90
2022-08-23T11:23:48.290Z,99.90
2022-08-23T11:26:28.471Z,99.90
2022-08-23T11:28:56.748Z,1.00
2022-08-23T11:31:43.133Z,99.90
2022-08-23T11:34:19.613Z,99.90
2022-08-23T11:37:07.934Z,1.00
2022-08-23T11:39:54.574Z,1.00
2022-08-23T11:42:21.286Z,99.90
2022-08-23T11:44:48.646Z,99.90
2022-08-23T11:47:15.497Z,99.90
2022-08-23T11:49:50.973Z,99.90
2022-08-23T11:52:31.115Z,99.90
2022-08-23T11:55:15.831Z,99.90
2022-08-23T11:57:54.640Z,99.90
2022-08-23T12:00:28.515Z,99.90
2022-08-23T12:03:06.909Z,99.90
2022-08-23T12:05:33.964Z,99.90
2022-08-23T12:08:04.003Z,99.90
2022-08-23T12:10:43.027Z,1.00
2022-08-23T12:13:18.658Z,1.00
2022-08-23T12:16:04.288Z,1.00
2022-08-23T12:18:32.964Z,1.00
2022-08-23T12:21:01.121Z,1.00
2022-08-23T12:23:27.962Z,1.00
2022-08-23T12:25:59.063Z,99.90
2022-08-23T12:28:32.684Z,1.00
2022-08-23T12:30:59.379Z,1.00
2022-08-23T12:33:41.082Z,99.90
2022-08-23T12:36:27.927Z,99.90
2022-08-23T12:39:04.939Z,99.90
2022-08-23T12:41:33.349Z,99.90
2022-08-23T12:44:03.233Z,99.90
2022-08-23T12:46:37.954Z,99.90
2022-08-23T12:49:06.071Z,99.90
2022-08-23T12:51:32.797Z,99.90
2022-08-23T12:54:11.870Z,1.00
2022-08-23T12:56:38.681Z,99.90
2022-08-23T12:59:07.580Z,99.90
2022-08-23T13:01:37.310Z,99.90
2022-08-23T13:04:06.281Z,99.90
2022-08-23T13:06:39.919Z,1.00
2022-08-23T13:09:13.295Z,1.00
2022-08-23T13:11:40.339Z,99.90
2022-08-23T13:14:23.570Z,99.90
2022-08-23T13:16:51.705Z,1.00
2022-08-23T13:19:30.705Z,1.00
2022-08-23T13:22:09.597Z,1.00
2022-08-23T13:24:39.163Z,1.00
2022-08-23T13:27:14.247Z,1.00
2022-08-23T13:29:51.142Z,99.90
2022-08-23T13:32:44.125Z,99.90
2022-08-23T13:35:23.037Z,99.90
2022-08-23T13:37:50.338Z,99.90
2022-08-23T13:40:28.797Z,99.90
2022-08-23T13:43:10.168Z,99.90
2022-08-23T13:45:43.860Z,99.90
2022-08-23T13:48:13.395Z,1.00
2022-08-23T13:50:40.597Z,1.00
2022-08-23T13:53:14.826Z,99.90
2022-08-23T13:55:55.526Z,1.00
2022-08-23T13:58:32.838Z,1.00
2022-08-23T14:01:00.597Z,1.00
2022-08-23T14:03:28.743Z,1.00
2022-08-23T14:05:55.421Z,1.00
2022-08-23T14:08:22.661Z,1.00
2022-08-23T14:10:49.695Z,1.00
2022-08-23T14:13:17.299Z,1.00
2022-08-23T14:16:32.901Z,1.00
2022-08-23T14:18:32.432Z,1.00
2022-08-23T14:20:59.491Z,1.00
2022-08-23T14:23:26.241Z,1.00
2022-08-23T14:25:54.909Z,1.00
2022-08-23T14:28:22.848Z,1.00
2022-08-23T14:30:51.542Z,1.00
2022-08-23T14:33:19.950Z,1.00
2022-08-23T14:35:46.625Z,1.00
2022-08-23T14:38:15.370Z,1.00
2022-08-23T14:40:48.066Z,1.00
2022-08-23T14:43:14.834Z,1.00
2022-08-23T14:45:41.823Z,1.00
2022-08-23T14:48:08.583Z,1.00
2022-08-23T14:50:35.309Z,1.00
2022-08-23T14:53:03.253Z,1.00
2022-08-23T14:55:30.103Z,1.00
2022-08-23T14:57:56.939Z,1.00
2022-08-23T15:00:23.728Z,1.00
2022-08-23T15:02:50.474Z,1.00
2022-08-23T15:05:18.234Z,1.00
2022-08-23T15:07:45.305Z,99.90
2022-08-23T15:10:49.668Z,1.00
2022-08-23T15:13:14.047Z,1.00
2022-08-23T15:15:46.149Z,1.00
2022-08-23T15:18:16.144Z,1.00
2022-08-23T15:20:42.955Z,1.00
2022-08-23T15:23:09.906Z,1.00
2022-08-23T15:25:38.307Z,1.00
2022-08-23T15:28:09.596Z,1.00
2022-08-23T15:30:39.054Z,1.00
2022-08-23T15:33:06.136Z,1.00
2022-08-23T15:35:38.929Z,1.00
2022-08-23T15:38:07.734Z,1.00
2022-08-23T15:40:34.681Z,1.00
2022-08-23T15:43:03.458Z,1.00
2022-08-23T15:45:31.333Z,1.00
2022-08-23T15:47:58.946Z,1.00
2022-08-23T15:50:27.210Z,1.00
2022-08-23T15:52:54.166Z,1.00
2022-08-23T15:55:21.065Z,99.90
2022-08-23T15:57:49.848Z,1.00
2022-08-23T16:00:17.770Z,1.00
2022-08-23T16:03:06.472Z,1.00
2022-08-23T16:05:31.775Z,1.00
2022-08-23T16:07:59.511Z,1.00
2022-08-23T16:10:28.072Z,1.00
2022-08-23T16:12:55.306Z,1.00
2022-08-23T16:15:22.277Z,99.90
2022-08-23T16:17:49.054Z,1.00
2022-08-23T16:20:15.708Z,1.00
2022-08-23T16:22:42.491Z,1.00
2022-08-23T16:25:09.609Z,1.00
2022-08-23T16:27:36.396Z,1.00
2022-08-23T16:30:04.522Z,1.00
2022-08-23T16:32:31.201Z,1.00
2022-08-23T16:34:57.986Z,1.00
2022-08-23T16:37:25.662Z,1.00
2022-08-23T16:39:52.468Z,1.00
2022-08-23T16:42:19.260Z,1.00
2022-08-23T16:44:45.902Z,1.00
2022-08-23T16:47:13.142Z,1.00
2022-08-23T16:49:43.291Z,1.00
2022-08-23T16:52:13.124Z,1.00
2022-08-23T16:54:39.868Z,1.00
2022-08-23T16:57:06.893Z,1.00
2022-08-23T16:59:39.734Z,1.00
2022-08-23T17:02:10.946Z,1.00
2022-08-23T17:04:37.955Z,1.00
2022-08-23T17:07:04.671Z,1.00
2022-08-23T17:09:31.592Z,1.00
2022-08-23T17:11:58.615Z,99.90
2022-08-23T17:14:26.137Z,99.90
2022-08-23T17:16:53.276Z,99.90
2022-08-23T17:19:20.115Z,1.00
2022-08-23T17:21:46.908Z,1.00
2022-08-23T17:24:13.696Z,1.00
2022-08-23T17:26:40.347Z,1.00
2022-08-23T17:29:07.477Z,1.00
2022-08-23T17:31:34.230Z,1.00
2022-08-23T17:34:03.857Z,1.00
2022-08-23T17:36:35.943Z,99.90
2022-08-23T17:39:03.945Z,1.00
2022-08-23T17:41:30.730Z,1.00
2022-08-23T17:44:02.665Z,99.90
2022-08-23T17:46:29.437Z,1.00
2022-08-23T17:48:57.725Z,99.90
2022-08-23T17:51:24.843Z,99.90
2022-08-23T17:53:51.585Z,99.90
2022-08-23T17:56:18.405Z,1.00
2022-08-23T17:58:45.109Z,99.90
2022-08-23T18:01:11.974Z,99.90
2022-08-23T18:03:39.029Z,99.90
2022-08-23T18:06:16.294Z,99.90
2022-08-23T18:08:44.658Z,99.90
2022-08-23T18:11:11.907Z,99.90
2022-08-23T18:13:38.630Z,99.90
2022-08-23T18:16:05.877Z,99.90
2022-08-23T18:18:32.675Z,99.90
2022-08-23T18:21:03.841Z,99.90
2022-08-23T18:23:30.490Z,99.90
2022-08-23T18:25:57.190Z,99.90
2022-08-23T18:28:23.979Z,99.90
2022-08-23T18:30:56.281Z,99.90
2022-08-23T18:33:25.386Z,1.00
2022-08-23T18:35:58.185Z,99.90
2022-08-23T18:38:24.882Z,99.90
2022-08-23T18:40:51.642Z,1.00
2022-08-23T18:43:20.696Z,99.90
2022-08-23T18:45:48.713Z,99.90
2022-08-23T18:48:15.695Z,99.90
2022-08-23T18:50:42.745Z,99.90
2022-08-23T18:53:09.960Z,99.90
2022-08-23T18:55:36.659Z,99.90
2022-08-23T18:58:03.766Z,99.90
2022-08-23T19:00:31.524Z,99.90
2022-08-23T19:02:58.887Z,99.90
2022-08-23T19:05:25.763Z,99.90
2022-08-23T19:07:52.466Z,99.90
2022-08-23T19:10:20.590Z,99.90
2022-08-23T19:12:52.814Z,99.90
2022-08-23T19:15:21.746Z,99.90
2022-08-23T19:17:48.502Z,99.90
2022-08-23T19:20:15.391Z,99.90
2022-08-23T19:22:43.310Z,1.00
2022-08-23T19:25:10.730Z,99.90
2022-08-23T19:27:37.430Z,1.00
2022-08-23T19:30:04.787Z,99.90
2022-08-23T19:32:35.293Z,99.90
2022-08-23T19:35:02.076Z,99.90
2022-08-23T19:37:28.827Z,99.90
2022-08-23T19:39:55.674Z,1.00
2022-08-23T19:42:23.599Z,99.90
2022-08-23T19:44:50.563Z,99.90
2022-08-23T19:47:20.203Z,99.90
2022-08-23T19:49:48.544Z,99.90
2022-08-23T19:52:15.272Z,99.90
2022-08-23T19:54:42.001Z,99.90
2022-08-23T19:57:10.082Z,99.90
2022-08-23T19:59:39.098Z,1.00
2022-08-23T20:02:07.124Z,1.00
2022-08-23T20:04:33.986Z,99.90
2022-08-23T20:07:02.019Z,99.90
2022-08-23T20:09:29.680Z,99.90
2022-08-23T20:11:56.643Z,1.00
2022-08-23T20:14:24.461Z,1.00
2022-08-23T20:16:51.781Z,99.90
2022-08-23T20:19:18.580Z,99.90
2022-08-23T20:21:45.395Z,99.90
2022-08-23T20:24:13.601Z,99.90
2022-08-23T20:26:42.116Z,99.90
2022-08-23T20:29:10.317Z,99.90
2022-08-23T20:31:39.605Z,99.90
2022-08-23T20:34:08.818Z,99.90
2022-08-23T20:36:36.114Z,99.90
2022-08-23T20:39:04.157Z,99.90
2022-08-23T20:41:32.914Z,99.90
2022-08-23T20:44:00.546Z,99.90
2022-08-23T20:46:27.401Z,99.90
2022-08-23T20:48:54.503Z,99.90
2022-08-23T20:51:21.301Z,99.90
2022-08-23T20:53:48.162Z,99.90
2022-08-23T20:56:16.086Z,99.90
2022-08-23T20:58:43.606Z,99.90
2022-08-23T21:01:11.348Z,99.90
2022-08-23T21:03:38.750Z,99.90
2022-08-23T21:06:07.502Z,99.90
2022-08-23T21:08:34.971Z,99.90
2022-08-23T21:11:05.695Z,99.90
2022-08-23T21:13:32.766Z,99.90
2022-08-23T21:16:00.463Z,99.90
2022-08-23T21:18:27.459Z,99.90
2022-08-23T21:20:54.481Z,99.90
2022-08-23T21:23:21.719Z,99.90
2022-08-23T21:25:52.892Z,99.90
2022-08-23T21:28:19.747Z,99.90
2022-08-23T21:30:47.241Z,99.90
2022-08-23T21:33:14.260Z,99.90
2022-08-23T21:35:41.264Z,99.90
2022-08-23T21:38:08.004Z,99.90
2022-08-23T21:40:34.664Z,99.90
2022-08-23T21:43:01.479Z,99.90
2022-08-23T21:45:28.518Z,99.90
2022-08-23T21:47:55.783Z,99.90
2022-08-23T21:50:24.770Z,99.90
2022-08-23T21:52:56.530Z,99.90
2022-08-23T21:55:24.237Z,99.90
2022-08-23T21:58:02.803Z,99.90
2022-08-23T22:00:29.674Z,99.90
2022-08-23T22:02:56.616Z,99.90
2022-08-23T22:05:23.599Z,99.90
2022-08-23T22:07:51.971Z,99.90
2022-08-23T22:10:19.146Z,99.90
2022-08-23T22:12:45.948Z,99.90
2022-08-23T22:15:13.455Z,99.90
2022-08-23T22:17:40.179Z,99.90
2022-08-23T22:20:07.460Z,99.90
2022-08-23T22:22:34.110Z,99.90
2022-08-23T22:25:00.991Z,99.90
2022-08-23T22:27:28.142Z,99.90
2022-08-23T22:29:54.879Z,99.90
2022-08-23T22:32:21.868Z,99.90
2022-08-23T22:34:48.842Z,99.90
2022-08-23T22:37:15.502Z,99.90
2022-08-23T22:39:42.404Z,99.90
2022-08-23T22:42:09.916Z,99.90
2022-08-23T22:44:37.166Z,99.90
2022-08-23T22:47:04.142Z,99.90
2022-08-23T22:49:31.019Z,99.90
2022-08-23T22:51:57.862Z,99.90
2022-08-23T22:54:25.477Z,99.90
2022-08-23T22:56:53.065Z,99.90
2022-08-23T22:59:20.685Z,99.90
2022-08-23T23:01:48.977Z,99.90
2022-08-23T23:04:16.811Z,99.90
2022-08-23T23:06:44.374Z,99.90
2022-08-23T23:09:11.765Z,99.90
2022-08-23T23:11:40.339Z,99.90
2022-08-23T23:14:07.322Z,99.90
2022-08-23T23:16:34.133Z,99.90
2022-08-23T23:19:19.535Z,99.90
2022-08-23T23:21:50.963Z,99.90
2022-08-23T23:24:19.570Z,99.90
2022-08-23T23:26:47.840Z,99.90
2022-08-23T23:29:14.763Z,99.90
2022-08-23T23:31:41.495Z,99.90
2022-08-23T23:34:08.306Z,99.90
2022-08-23T23:36:35.070Z,99.90
2022-08-23T23:39:03.858Z,99.90
2022-08-23T23:41:31.282Z,99.90
2022-08-23T23:43:58.717Z,99.90
2022-08-23T23:46:25.568Z,99.90
2022-08-23T23:48:52.363Z,99.90
2022-08-23T23:51:20.693Z,99.90
2022-08-23T23:53:47.687Z,99.90
2022-08-23T23:56:15.569Z,99.90
2022-08-23T23:58:42.327Z,99.90
